createdAt,value
2023-01-13T00:00:42.424Z,77.58
2023-01-13T00:01:44.765Z,77.61
2023-01-13T00:02:47.119Z,77.50
2023-01-13T00:03:49.430Z,77.47
2023-01-13T00:04:51.772Z,77.86
2023-01-13T00:05:53.940Z,77.61
2023-01-13T00:06:56.392Z,77.71
2023-01-13T00:07:58.701Z,77.71
2023-01-13T00:09:00.864Z,77.40
2023-01-13T00:10:03.250Z,77.42
2023-01-13T00:11:05.588Z,77.53
2023-01-13T00:12:07.918Z,77.73
2023-01-13T00:13:10.878Z,77.56
2023-01-13T00:14:13.105Z,77.37
2023-01-13T00:15:15.490Z,77.45
2023-01-13T00:16:18.870Z,77.33
2023-01-13T00:17:22.588Z,77.23
2023-01-13T00:18:25.065Z,77.31
2023-01-13T00:19:27.224Z,77.03
2023-01-13T00:20:29.571Z,76.78
2023-01-13T00:21:32.140Z,76.91
2023-01-13T00:22:35.351Z,77.04
2023-01-13T00:23:37.588Z,76.92
2023-01-13T00:24:39.714Z,76.45
2023-01-13T00:25:42.048Z,76.69
2023-01-13T00:26:44.217Z,77.26
2023-01-13T00:27:46.550Z,77.40
2023-01-13T00:28:49.664Z,77.39
2023-01-13T00:29:52.375Z,77.11
2023-01-13T00:30:58.256Z,77.04
2023-01-13T00:32:00.639Z,76.88
2023-01-13T00:33:02.957Z,76.65
2023-01-13T00:34:05.140Z,76.39
2023-01-13T00:35:07.795Z,76.37
2023-01-13T00:36:12.731Z,75.89
2023-01-13T00:37:14.908Z,76.05
2023-01-13T00:38:17.076Z,75.87
2023-01-13T00:39:19.229Z,75.94
2023-01-13T00:40:21.372Z,76.00
2023-01-13T00:41:25.292Z,75.76
2023-01-13T00:42:46.392Z,75.85
2023-01-13T00:43:49.636Z,75.25
2023-01-13T00:44:51.802Z,75.50
2023-01-13T00:45:54.598Z,75.13
2023-01-13T00:46:56.734Z,75.08
2023-01-13T00:47:58.896Z,75.29
2023-01-13T00:49:01.214Z,75.31
2023-01-13T00:50:03.532Z,75.36
2023-01-13T00:51:05.774Z,75.36
2023-01-13T00:52:07.924Z,75.08
2023-01-13T00:53:10.309Z,75.04
2023-01-13T00:54:12.635Z,74.81
2023-01-13T00:55:14.816Z,75.01
2023-01-13T00:56:22.115Z,74.62
2023-01-13T00:57:32.649Z,74.76
2023-01-13T00:58:35.615Z,74.59
2023-01-13T00:59:37.775Z,74.68
2023-01-13T01:00:40.091Z,74.89
2023-01-13T01:01:42.591Z,74.81
2023-01-13T01:02:45.003Z,74.85
2023-01-13T01:03:48.801Z,74.75
2023-01-13T01:04:50.924Z,74.92
2023-01-13T01:05:53.063Z,75.16
2023-01-13T01:06:55.448Z,74.77
2023-01-13T01:07:57.566Z,74.85
2023-01-13T01:09:00.093Z,74.73
2023-01-13T01:10:02.419Z,74.89
2023-01-13T01:11:07.471Z,75.02
2023-01-13T01:12:09.684Z,74.74
2023-01-13T01:13:15.030Z,74.73
2023-01-13T01:14:17.593Z,74.63
2023-01-13T01:15:19.703Z,74.74
2023-01-13T01:16:24.515Z,74.79
2023-01-13T01:17:28.083Z,75.11
2023-01-13T01:18:30.208Z,75.11
2023-01-13T01:19:32.585Z,75.06
2023-01-13T01:20:34.819Z,74.99
2023-01-13T01:21:37.090Z,75.03
2023-01-13T01:22:39.475Z,74.92
2023-01-13T01:23:41.917Z,74.92
2023-01-13T01:24:44.081Z,75.36
2023-01-13T01:25:46.255Z,75.38
2023-01-13T01:26:48.404Z,75.71
2023-01-13T01:27:50.771Z,75.60
2023-01-13T01:28:53.344Z,75.53
2023-01-13T01:29:55.675Z,75.51
2023-01-13T01:31:01.991Z,75.29
2023-01-13T01:32:04.256Z,75.22
2023-01-13T01:33:06.405Z,75.13
2023-01-13T01:34:08.804Z,75.23
2023-01-13T01:35:11.206Z,75.21
2023-01-13T01:36:15.046Z,75.45
2023-01-13T01:37:17.281Z,75.21
2023-01-13T01:38:21.243Z,75.28
2023-01-13T01:39:23.599Z,75.39
2023-01-13T01:40:27.591Z,75.48
2023-01-13T01:41:32.253Z,75.37
2023-01-13T01:42:52.885Z,75.24
2023-01-13T01:43:59.199Z,75.29
2023-01-13T01:45:14.250Z,75.44
2023-01-13T01:46:16.498Z,74.93
2023-01-13T01:47:20.200Z,75.16
2023-01-13T01:48:22.359Z,75.08
2023-01-13T01:49:33.407Z,75.23
2023-01-13T01:50:37.070Z,75.50
2023-01-13T01:51:45.874Z,75.61
2023-01-13T01:52:53.886Z,75.27
2023-01-13T01:53:56.989Z,75.35
2023-01-13T01:55:05.220Z,75.25
2023-01-13T01:56:10.555Z,75.18
2023-01-13T01:57:18.163Z,75.49
2023-01-13T01:58:31.211Z,75.58
2023-01-13T01:59:36.084Z,75.58
2023-01-13T02:00:41.993Z,75.59
2023-01-13T02:01:45.541Z,75.80
2023-01-13T02:02:50.689Z,76.02
2023-01-13T02:03:59.369Z,75.97
2023-01-13T02:05:02.075Z,75.96
2023-01-13T02:06:04.727Z,75.92
2023-01-13T02:07:07.001Z,76.09
2023-01-13T02:08:11.775Z,75.83
2023-01-13T02:09:14.176Z,76.22
2023-01-13T02:10:20.679Z,76.19
2023-01-13T02:11:53.383Z,76.25
2023-01-13T02:13:00.383Z,76.15
2023-01-13T02:14:02.882Z,76.19
2023-01-13T02:15:21.262Z,76.22
2023-01-13T02:16:24.889Z,76.30
2023-01-13T02:18:02.631Z,76.05
2023-01-13T02:19:38.823Z,76.09
2023-01-13T02:20:59.949Z,76.04
2023-01-13T02:22:23.022Z,75.86
2023-01-13T02:23:59.252Z,75.66
2023-01-13T02:25:11.400Z,75.78
2023-01-13T02:26:47.337Z,75.66
2023-01-13T02:27:54.073Z,75.89
2023-01-13T02:29:50.503Z,76.07
2023-01-13T02:31:18.111Z,76.00
2023-01-13T02:32:33.558Z,75.56
2023-01-13T02:34:10.334Z,75.73
2023-01-13T02:35:26.236Z,75.77
2023-01-13T02:36:42.173Z,75.73
2023-01-13T02:37:45.100Z,75.90
2023-01-13T02:39:13.406Z,75.86
2023-01-13T02:40:22.870Z,75.88
2023-01-13T02:42:02.873Z,75.71
2023-01-13T02:43:37.942Z,75.35
2023-01-13T02:44:53.965Z,75.62
2023-01-13T02:46:03.011Z,75.50
2023-01-13T02:47:10.222Z,75.65
2023-01-13T02:48:15.307Z,75.44
2023-01-13T02:49:29.853Z,75.34
2023-01-13T02:50:44.357Z,75.30
2023-01-13T02:51:48.564Z,75.57
2023-01-13T02:53:05.882Z,75.18
2023-01-13T02:54:16.180Z,75.19
2023-01-13T02:55:24.575Z,75.20
2023-01-13T02:56:27.553Z,75.30
2023-01-13T02:57:33.909Z,75.25
2023-01-13T02:58:39.349Z,75.44
2023-01-13T02:59:43.065Z,75.50
2023-01-13T03:00:46.599Z,75.11
2023-01-13T03:01:50.198Z,75.06
2023-01-13T03:02:52.879Z,74.96
2023-01-13T03:03:55.150Z,75.09
2023-01-13T03:04:59.986Z,74.94
2023-01-13T03:06:31.706Z,74.64
2023-01-13T03:07:48.957Z,74.76
2023-01-13T03:09:00.211Z,74.73
2023-01-13T03:10:23.953Z,74.68
2023-01-13T03:11:33.533Z,74.70
2023-01-13T03:12:51.587Z,74.65
2023-01-13T03:14:35.192Z,74.74
2023-01-13T03:16:05.366Z,74.97
2023-01-13T03:17:25.566Z,74.99
2023-01-13T03:18:45.646Z,74.90
2023-01-13T03:20:02.372Z,74.57
2023-01-13T03:21:35.865Z,74.67
2023-01-13T03:22:59.971Z,74.99
2023-01-13T03:24:22.850Z,74.90
2023-01-13T03:25:49.360Z,74.38
2023-01-13T03:27:04.220Z,74.23
2023-01-13T03:28:12.003Z,74.20
2023-01-13T03:29:23.002Z,74.19
2023-01-13T03:30:41.778Z,74.23
2023-01-13T03:31:58.260Z,74.17
2023-01-13T03:33:07.321Z,73.92
2023-01-13T03:34:20.625Z,74.01
2023-01-13T03:35:29.141Z,74.17
2023-01-13T03:36:32.697Z,74.47
2023-01-13T03:37:39.459Z,74.36
2023-01-13T03:38:53.923Z,74.09
2023-01-13T03:40:27.800Z,74.20
2023-01-13T03:41:36.086Z,74.14
2023-01-13T03:42:41.556Z,74.16
2023-01-13T03:44:21.641Z,74.37
2023-01-13T03:45:24.101Z,74.35
2023-01-13T03:46:44.236Z,74.42
2023-01-13T03:47:52.993Z,74.44
2023-01-13T03:48:58.664Z,74.15
2023-01-13T03:50:06.853Z,73.95
2023-01-13T03:51:14.042Z,74.04
2023-01-13T03:52:25.352Z,73.94
2023-01-13T03:53:32.644Z,74.04
2023-01-13T03:54:41.947Z,73.99
2023-01-13T03:55:52.402Z,73.96
2023-01-13T03:56:59.564Z,74.00
2023-01-13T03:58:06.724Z,73.88
2023-01-13T03:59:16.924Z,73.89
2023-01-13T04:00:25.913Z,73.55
2023-01-13T04:01:48.578Z,73.68
2023-01-13T04:03:11.361Z,73.71
2023-01-13T04:04:31.549Z,73.59
2023-01-13T04:05:39.473Z,73.82
2023-01-13T04:06:50.813Z,73.92
2023-01-13T04:08:01.905Z,73.85
2023-01-13T04:09:10.115Z,73.74
2023-01-13T04:10:16.562Z,73.82
2023-01-13T04:11:29.765Z,73.77
2023-01-13T04:13:01.255Z,73.91
2023-01-13T04:14:04.850Z,73.91
2023-01-13T04:15:07.888Z,73.54
2023-01-13T04:16:11.815Z,73.48
2023-01-13T04:17:15.537Z,73.18
2023-01-13T04:18:22.184Z,73.44
2023-01-13T04:19:24.559Z,73.61
2023-01-13T04:20:26.857Z,73.32
2023-01-13T04:21:30.584Z,73.27
2023-01-13T04:22:32.802Z,73.32
2023-01-13T04:23:35.306Z,72.97
2023-01-13T04:24:37.487Z,72.88
2023-01-13T04:25:41.122Z,72.79
2023-01-13T04:26:43.560Z,72.58
2023-01-13T04:27:45.745Z,72.43
2023-01-13T04:28:48.109Z,72.47
2023-01-13T04:29:50.289Z,72.32
2023-01-13T04:30:52.850Z,72.34
2023-01-13T04:31:55.064Z,72.17
2023-01-13T04:32:57.460Z,71.95
2023-01-13T04:33:59.927Z,72.17
2023-01-13T04:35:02.264Z,72.20
2023-01-13T04:36:04.725Z,72.44
2023-01-13T04:37:06.886Z,72.29
2023-01-13T04:38:12.316Z,72.18
2023-01-13T04:39:14.670Z,72.28
2023-01-13T04:40:17.240Z,72.00
2023-01-13T04:41:19.641Z,71.67
2023-01-13T04:42:22.015Z,71.74
2023-01-13T04:43:24.394Z,71.40
2023-01-13T04:44:27.382Z,71.42
2023-01-13T04:45:29.612Z,71.17
2023-01-13T04:46:31.833Z,71.41
2023-01-13T04:47:34.034Z,71.45
2023-01-13T04:48:36.447Z,71.47
2023-01-13T04:49:38.816Z,71.71
2023-01-13T04:50:41.278Z,71.76
2023-01-13T04:51:43.489Z,71.60
2023-01-13T04:52:53.593Z,71.18
2023-01-13T04:53:56.150Z,71.26
2023-01-13T04:54:58.385Z,71.21
2023-01-13T04:56:00.634Z,71.10
2023-01-13T04:57:03.006Z,71.07
2023-01-13T04:58:07.899Z,71.15
2023-01-13T04:59:12.120Z,71.10
2023-01-13T05:00:16.582Z,71.27
2023-01-13T05:01:18.829Z,71.35
2023-01-13T05:02:21.209Z,71.46
2023-01-13T05:03:24.425Z,71.59
2023-01-13T05:04:26.804Z,71.58
2023-01-13T05:05:30.371Z,70.99
2023-01-13T05:06:33.004Z,70.87
2023-01-13T05:07:35.520Z,70.88
2023-01-13T05:08:37.691Z,70.74
2023-01-13T05:09:40.121Z,70.79
2023-01-13T05:10:42.302Z,70.64
2023-01-13T05:12:03.058Z,70.78
2023-01-13T05:13:23.802Z,70.44
2023-01-13T05:14:44.534Z,70.59
2023-01-13T05:16:06.783Z,70.62
2023-01-13T05:17:12.346Z,70.62
2023-01-13T05:18:15.727Z,70.71
2023-01-13T05:19:18.120Z,70.67
2023-01-13T05:20:20.417Z,70.45
2023-01-13T05:21:41.208Z,70.60
2023-01-13T05:23:01.902Z,70.59
2023-01-13T05:24:42.809Z,69.99
2023-01-13T05:25:48.151Z,69.71
2023-01-13T05:26:50.358Z,70.04
2023-01-13T05:27:58.379Z,70.19
2023-01-13T05:29:00.554Z,69.78
2023-01-13T05:30:03.511Z,69.10
2023-01-13T05:31:06.093Z,69.65
2023-01-13T05:32:08.972Z,69.62
2023-01-13T05:33:16.173Z,69.97
2023-01-13T05:34:18.370Z,69.90
2023-01-13T05:35:20.860Z,69.92
2023-01-13T05:36:23.165Z,69.80
2023-01-13T05:37:25.981Z,69.99
2023-01-13T05:38:28.384Z,70.08
2023-01-13T05:39:50.664Z,70.08
2023-01-13T05:41:12.032Z,69.96
2023-01-13T05:42:32.685Z,69.89
2023-01-13T05:43:35.252Z,70.08
2023-01-13T05:44:37.452Z,69.94
2023-01-13T05:45:39.656Z,70.26
2023-01-13T05:46:42.323Z,70.29
2023-01-13T05:47:44.513Z,69.96
2023-01-13T05:48:48.125Z,69.82
2023-01-13T05:49:50.342Z,69.80
2023-01-13T05:50:53.937Z,69.88
2023-01-13T05:51:56.571Z,69.27
2023-01-13T05:52:58.804Z,69.43
2023-01-13T05:54:00.986Z,69.30
2023-01-13T05:55:04.047Z,69.22
2023-01-13T05:56:07.277Z,69.48
2023-01-13T05:57:09.695Z,69.41
2023-01-13T05:58:14.512Z,69.48
2023-01-13T05:59:16.679Z,69.46
2023-01-13T06:00:19.638Z,69.28
2023-01-13T06:01:21.899Z,69.40
2023-01-13T06:03:47.894Z,69.84
2023-01-13T06:04:50.111Z,69.99
2023-01-13T06:05:58.447Z,69.85
2023-01-13T06:07:01.002Z,69.58
2023-01-13T06:08:05.365Z,69.82
2023-01-13T06:09:07.734Z,69.35
2023-01-13T06:10:10.360Z,69.64
2023-01-13T06:11:12.523Z,69.86
2023-01-13T06:12:14.933Z,69.58
2023-01-13T06:13:17.829Z,69.10
2023-01-13T06:14:20.204Z,69.44
2023-01-13T06:15:23.284Z,69.30
2023-01-13T06:16:25.553Z,69.37
2023-01-13T06:17:28.790Z,69.17
2023-01-13T06:18:31.043Z,69.23
2023-01-13T06:19:33.440Z,69.07
2023-01-13T06:20:35.764Z,69.09
2023-01-13T06:21:37.928Z,69.20
2023-01-13T06:22:43.722Z,68.99
2023-01-13T06:23:46.057Z,68.95
2023-01-13T06:24:49.665Z,69.23
2023-01-13T06:26:10.071Z,68.82
2023-01-13T06:27:13.030Z,68.78
2023-01-13T06:28:15.503Z,68.84
2023-01-13T06:29:17.920Z,69.22
2023-01-13T06:30:20.362Z,69.42
2023-01-13T06:31:23.455Z,68.94
2023-01-13T06:32:32.496Z,68.58
2023-01-13T06:33:38.304Z,68.31
2023-01-13T06:34:44.507Z,68.53
2023-01-13T06:35:52.336Z,68.71
2023-01-13T06:36:55.484Z,68.48
2023-01-13T06:38:01.935Z,68.55
2023-01-13T06:39:04.415Z,68.72
2023-01-13T06:40:07.392Z,68.36
2023-01-13T06:41:09.969Z,69.00
2023-01-13T06:42:30.947Z,68.63
2023-01-13T06:43:33.693Z,68.64
2023-01-13T06:44:36.101Z,68.63
2023-01-13T06:45:38.275Z,68.55
2023-01-13T06:46:40.569Z,69.58
2023-01-13T06:47:44.029Z,68.65
2023-01-13T06:48:46.395Z,68.60
2023-01-13T06:49:48.953Z,69.02
2023-01-13T06:50:51.346Z,69.08
2023-01-13T06:51:53.501Z,68.87
2023-01-13T06:52:55.755Z,68.89
2023-01-13T06:53:58.198Z,69.17
2023-01-13T06:55:00.604Z,68.80
2023-01-13T06:56:02.811Z,68.76
2023-01-13T06:57:05.267Z,68.70
2023-01-13T06:58:08.018Z,68.44
2023-01-13T06:59:10.446Z,68.60
2023-01-13T07:00:13.362Z,68.49
2023-01-13T07:01:15.822Z,68.54
2023-01-13T07:02:18.218Z,68.44
2023-01-13T07:03:20.409Z,68.20
2023-01-13T07:04:22.728Z,68.21
2023-01-13T07:05:24.927Z,68.57
2023-01-13T07:06:27.284Z,68.63
2023-01-13T07:07:29.478Z,68.71
2023-01-13T07:08:31.975Z,68.36
2023-01-13T07:09:34.558Z,68.21
2023-01-13T07:10:37.186Z,68.13
2023-01-13T07:11:39.539Z,68.29
2023-01-13T07:13:00.344Z,68.04
2023-01-13T07:14:21.145Z,68.04
2023-01-13T07:15:23.584Z,67.94
2023-01-13T07:16:28.180Z,68.08
2023-01-13T07:17:30.609Z,68.10
2023-01-13T07:18:34.401Z,68.21
2023-01-13T07:19:37.075Z,68.25
2023-01-13T07:20:39.282Z,67.90
2023-01-13T07:21:41.523Z,68.11
2023-01-13T07:22:44.377Z,68.13
2023-01-13T07:23:47.622Z,68.00
2023-01-13T07:24:50.353Z,68.20
2023-01-13T07:25:55.552Z,68.18
2023-01-13T07:26:57.837Z,68.11
2023-01-13T07:28:00.203Z,67.98
2023-01-13T07:29:02.460Z,67.78
2023-01-13T07:30:06.275Z,67.74
2023-01-13T07:31:17.819Z,67.92
2023-01-13T07:32:20.051Z,68.12
2023-01-13T07:33:22.923Z,67.99
2023-01-13T07:34:25.190Z,67.90
2023-01-13T07:35:27.751Z,67.88
2023-01-13T07:36:29.956Z,67.69
2023-01-13T07:37:36.629Z,67.54
2023-01-13T07:38:40.001Z,67.81
2023-01-13T07:39:42.347Z,67.65
2023-01-13T07:40:44.754Z,67.40
2023-01-13T07:42:05.692Z,67.22
2023-01-13T07:43:30.189Z,67.56
2023-01-13T07:44:32.550Z,67.41
2023-01-13T07:45:34.945Z,67.39
2023-01-13T07:46:38.346Z,67.38
2023-01-13T07:47:40.782Z,67.38
2023-01-13T07:48:43.126Z,67.23
2023-01-13T07:49:45.524Z,67.43
2023-01-13T07:50:47.962Z,67.45
2023-01-13T07:51:50.181Z,67.29
2023-01-13T07:52:52.632Z,67.49
2023-01-13T07:53:54.875Z,67.48
2023-01-13T07:54:57.102Z,67.21
2023-01-13T07:56:00.012Z,67.12
2023-01-13T07:57:02.203Z,67.19
2023-01-13T07:58:04.370Z,66.92
2023-01-13T07:59:06.731Z,67.30
2023-01-13T08:00:11.978Z,66.94
2023-01-13T08:01:16.946Z,67.19
2023-01-13T08:02:19.295Z,67.02
2023-01-13T08:03:22.894Z,67.29
2023-01-13T08:04:25.286Z,67.08
2023-01-13T08:05:27.445Z,67.16
2023-01-13T08:06:30.189Z,66.83
2023-01-13T08:07:32.632Z,66.84
2023-01-13T08:08:35.232Z,66.94
2023-01-13T08:09:37.637Z,66.73
2023-01-13T08:10:40.028Z,66.78
2023-01-13T08:11:42.397Z,66.41
2023-01-13T08:13:03.440Z,66.43
2023-01-13T08:14:05.494Z,66.82
2023-01-13T08:15:10.093Z,66.52
2023-01-13T08:16:15.026Z,66.65
2023-01-13T08:17:19.160Z,66.51
2023-01-13T08:18:22.996Z,66.56
2023-01-13T08:19:25.173Z,66.63
2023-01-13T08:20:27.736Z,66.97
2023-01-13T08:21:30.147Z,67.41
2023-01-13T08:22:33.345Z,67.59
2023-01-13T08:23:35.968Z,67.70
2023-01-13T08:24:38.119Z,67.88
2023-01-13T08:25:40.751Z,67.91
2023-01-13T08:26:43.138Z,67.87
2023-01-13T08:27:45.306Z,68.08
2023-01-13T08:28:47.618Z,67.92
2023-01-13T08:29:49.831Z,67.81
2023-01-13T08:30:54.054Z,67.67
2023-01-13T08:31:56.633Z,67.67
2023-01-13T08:32:58.852Z,67.32
2023-01-13T08:34:01.211Z,67.68
2023-01-13T08:35:03.412Z,67.52
2023-01-13T08:36:07.586Z,67.20
2023-01-13T08:37:09.812Z,67.06
2023-01-13T08:38:12.032Z,67.31
2023-01-13T08:39:14.513Z,67.12
2023-01-13T08:40:18.150Z,67.00
2023-01-13T08:41:40.493Z,67.54
2023-01-13T08:42:42.706Z,67.05
2023-01-13T08:43:44.932Z,67.11
2023-01-13T08:44:48.576Z,67.07
2023-01-13T08:46:02.107Z,67.53
2023-01-13T08:47:05.024Z,67.55
2023-01-13T08:48:07.317Z,67.55
2023-01-13T08:49:09.521Z,67.57
2023-01-13T08:50:11.968Z,67.64
2023-01-13T08:51:14.407Z,67.54
2023-01-13T08:52:16.965Z,67.24
2023-01-13T08:53:20.383Z,67.31
2023-01-13T08:54:22.640Z,66.83
2023-01-13T08:55:25.114Z,66.87
2023-01-13T08:56:29.960Z,66.82
2023-01-13T08:57:32.351Z,66.83
2023-01-13T08:58:34.852Z,67.04
2023-01-13T08:59:37.253Z,67.19
2023-01-13T09:00:39.727Z,67.31
2023-01-13T09:01:42.780Z,67.47
2023-01-13T09:02:45.066Z,68.09
2023-01-13T09:03:47.286Z,68.32
2023-01-13T09:04:50.821Z,69.27
2023-01-13T09:05:53.029Z,70.17
2023-01-13T09:06:56.003Z,70.82
2023-01-13T09:07:58.227Z,71.13
2023-01-13T09:09:02.563Z,71.94
2023-01-13T09:10:09.033Z,72.35
2023-01-13T09:11:52.673Z,73.40
2023-01-13T09:13:13.409Z,73.95
2023-01-13T09:14:24.695Z,74.24
2023-01-13T09:15:26.915Z,74.87
2023-01-13T09:16:29.123Z,75.16
2023-01-13T09:17:31.682Z,74.88
2023-01-13T09:18:33.894Z,75.01
2023-01-13T09:19:36.764Z,74.68
2023-01-13T09:20:39.481Z,74.66
2023-01-13T09:21:41.913Z,74.81
2023-01-13T09:22:44.319Z,74.92
2023-01-13T09:23:46.608Z,75.98
2023-01-13T09:24:49.008Z,77.04
2023-01-13T09:25:52.776Z,77.86
2023-01-13T09:26:54.994Z,78.70
2023-01-13T09:27:58.254Z,79.49
2023-01-13T09:29:00.720Z,79.81
2023-01-13T09:30:03.489Z,80.30
2023-01-13T09:31:06.086Z,80.63
2023-01-13T09:32:11.826Z,81.14
2023-01-13T09:33:32.809Z,80.87
2023-01-13T09:34:54.030Z,80.80
2023-01-13T09:36:00.894Z,81.23
2023-01-13T09:37:04.795Z,81.17
2023-01-13T09:38:07.523Z,81.13
2023-01-13T09:39:09.889Z,81.09
2023-01-13T09:40:24.140Z,80.62
2023-01-13T09:41:47.657Z,80.35
2023-01-13T09:43:14.241Z,79.86
2023-01-13T09:44:46.067Z,78.22
2023-01-13T09:45:56.073Z,76.81
2023-01-13T09:47:04.418Z,75.24
2023-01-13T09:48:12.269Z,74.54
2023-01-13T09:49:30.771Z,74.55
2023-01-13T09:50:46.499Z,74.07
2023-01-13T09:52:16.270Z,73.94
2023-01-13T09:53:32.414Z,73.97
2023-01-13T09:54:48.440Z,73.73
2023-01-13T09:55:51.238Z,73.32
2023-01-13T09:56:53.689Z,72.48
2023-01-13T09:57:56.185Z,72.41
2023-01-13T09:58:58.606Z,72.38
2023-01-13T10:00:00.840Z,72.44
2023-01-13T10:01:38.952Z,72.43
2023-01-13T10:03:16.550Z,71.93
2023-01-13T10:04:19.010Z,71.90
2023-01-13T10:05:45.051Z,71.70
2023-01-13T10:06:56.291Z,71.59
2023-01-13T10:08:04.738Z,71.66
2023-01-13T10:09:15.928Z,71.53
2023-01-13T10:10:29.691Z,71.69
2023-01-13T10:11:57.089Z,72.14
2023-01-13T10:13:15.047Z,71.86
2023-01-13T10:14:28.234Z,72.10
2023-01-13T10:15:30.915Z,72.08
2023-01-13T10:16:34.510Z,71.82
2023-01-13T10:17:44.607Z,72.65
2023-01-13T10:18:56.075Z,72.81
2023-01-13T10:20:22.547Z,72.93
2023-01-13T10:21:34.018Z,73.07
2023-01-13T10:22:45.121Z,72.77
2023-01-13T10:24:17.966Z,72.61
2023-01-13T10:25:46.345Z,73.00
2023-01-13T10:27:03.072Z,73.12
2023-01-13T10:28:19.426Z,72.87
2023-01-13T10:29:28.288Z,72.83
2023-01-13T10:30:40.025Z,72.85
2023-01-13T10:31:42.239Z,72.96
2023-01-13T10:32:58.042Z,72.70
2023-01-13T10:34:04.291Z,72.22
2023-01-13T10:35:06.915Z,71.62
2023-01-13T10:36:12.012Z,71.46
2023-01-13T10:37:23.922Z,71.52
2023-01-13T10:38:26.339Z,71.48
2023-01-13T10:39:39.033Z,70.77
2023-01-13T10:40:49.207Z,70.92
2023-01-13T10:42:01.247Z,70.79
2023-01-13T10:43:06.766Z,70.29
2023-01-13T10:44:17.840Z,70.80
2023-01-13T10:45:25.602Z,71.00
2023-01-13T10:46:29.740Z,70.80
2023-01-13T10:47:36.387Z,70.20
2023-01-13T10:48:55.829Z,70.19
2023-01-13T10:50:13.373Z,70.15
2023-01-13T10:51:25.768Z,70.36
2023-01-13T10:52:36.079Z,70.31
2023-01-13T10:54:09.391Z,70.64
2023-01-13T10:55:42.046Z,70.50
2023-01-13T10:56:46.062Z,70.57
2023-01-13T10:57:48.421Z,70.69
2023-01-13T10:58:50.630Z,70.66
2023-01-13T10:59:54.786Z,70.67
2023-01-13T11:01:04.387Z,70.76
2023-01-13T11:02:29.773Z,70.71
2023-01-13T11:03:41.675Z,70.47
2023-01-13T11:04:55.683Z,70.29
2023-01-13T11:06:00.291Z,70.08
2023-01-13T11:07:18.441Z,69.96
2023-01-13T11:08:45.228Z,69.68
2023-01-13T11:09:47.572Z,69.79
2023-01-13T11:10:52.550Z,70.01
2023-01-13T11:11:56.600Z,70.08
2023-01-13T11:13:26.976Z,69.99
2023-01-13T11:14:44.311Z,70.09
2023-01-13T11:15:58.950Z,70.48
2023-01-13T11:17:30.812Z,70.38
2023-01-13T11:19:13.417Z,69.82
2023-01-13T11:20:32.446Z,70.28
2023-01-13T11:22:00.847Z,70.72
2023-01-13T11:23:12.862Z,70.95
2023-01-13T11:24:30.442Z,71.27
2023-01-13T11:25:43.126Z,71.05
2023-01-13T11:26:53.635Z,70.86
2023-01-13T11:28:04.938Z,71.42
2023-01-13T11:29:20.490Z,71.58
2023-01-13T11:30:50.686Z,71.67
2023-01-13T11:32:03.420Z,71.67
2023-01-13T11:33:15.108Z,71.96
2023-01-13T11:34:36.361Z,72.18
2023-01-13T11:35:45.470Z,72.60
2023-01-13T11:36:52.004Z,72.38
2023-01-13T11:38:01.404Z,72.19
2023-01-13T11:39:35.114Z,72.45
2023-01-13T11:40:42.469Z,72.46
2023-01-13T11:42:09.854Z,71.40
2023-01-13T11:43:47.819Z,71.30
2023-01-13T11:45:18.177Z,70.50
2023-01-13T11:46:26.166Z,70.43
2023-01-13T11:47:29.746Z,70.23
2023-01-13T11:48:37.601Z,69.97
2023-01-13T11:49:40.272Z,70.29
2023-01-13T11:50:47.598Z,70.19
2023-01-13T11:52:04.342Z,71.91
2023-01-13T11:53:24.670Z,70.64
2023-01-13T11:54:40.676Z,70.42
2023-01-13T11:56:01.676Z,70.00
2023-01-13T11:57:22.861Z,69.67
2023-01-13T11:58:24.933Z,69.22
2023-01-13T11:59:54.949Z,69.68
2023-01-13T12:01:05.919Z,69.39
2023-01-13T12:04:17.229Z,69.71
2023-01-13T12:05:42.965Z,69.88
2023-01-13T12:06:46.584Z,70.28
2023-01-13T12:07:51.591Z,70.06
2023-01-13T12:09:00.100Z,70.28
2023-01-13T12:10:35.327Z,70.07
2023-01-13T12:12:22.235Z,69.67
2023-01-13T12:13:27.072Z,70.14
2023-01-13T12:14:48.632Z,69.81
2023-01-13T12:16:14.480Z,70.22
2023-01-13T12:17:55.490Z,70.27
2023-01-13T12:19:04.971Z,70.42
2023-01-13T12:20:30.526Z,70.38
2023-01-13T12:21:37.360Z,70.41
2023-01-13T12:22:41.632Z,70.75
2023-01-13T12:23:47.218Z,70.64
2023-01-13T12:24:55.560Z,70.44
2023-01-13T12:26:30.027Z,70.75
2023-01-13T12:27:47.310Z,70.31
2023-01-13T12:28:56.293Z,70.32
2023-01-13T12:30:01.948Z,70.29
2023-01-13T12:31:04.774Z,70.14
2023-01-13T12:32:14.772Z,70.08
2023-01-13T12:33:48.045Z,70.10
2023-01-13T12:35:19.892Z,69.92
2023-01-13T12:36:59.046Z,69.86
2023-01-13T12:38:11.644Z,69.75
2023-01-13T12:39:41.962Z,68.95
2023-01-13T12:41:04.558Z,69.49
2023-01-13T12:42:36.719Z,69.09
2023-01-13T12:44:02.546Z,68.74
2023-01-13T12:45:10.684Z,69.03
2023-01-13T12:46:18.944Z,68.94
2023-01-13T12:47:39.139Z,69.45
2023-01-13T12:48:46.127Z,69.40
2023-01-13T12:49:48.319Z,69.32
2023-01-13T12:51:00.652Z,69.25
2023-01-13T12:52:14.825Z,69.39
2023-01-13T12:53:32.307Z,69.42
2023-01-13T12:54:37.235Z,69.33
2023-01-13T12:55:39.422Z,69.43
2023-01-13T12:56:44.755Z,69.61
2023-01-13T12:58:08.274Z,69.41
2023-01-13T12:59:19.841Z,69.22
2023-01-13T13:00:22.431Z,69.03
2023-01-13T13:01:36.125Z,69.39
2023-01-13T13:02:41.284Z,69.11
2023-01-13T13:04:13.832Z,69.17
2023-01-13T13:05:25.096Z,68.31
2023-01-13T13:06:31.143Z,68.17
2023-01-13T13:08:10.343Z,67.78
2023-01-13T13:09:21.423Z,68.40
2023-01-13T13:10:30.174Z,67.94
2023-01-13T13:11:59.722Z,67.98
2023-01-13T13:13:18.152Z,67.85
2023-01-13T13:14:39.363Z,67.55
2023-01-13T13:15:41.868Z,67.10
2023-01-13T13:16:53.914Z,67.28
2023-01-13T13:18:16.649Z,67.08
2023-01-13T13:19:19.986Z,67.73
2023-01-13T13:21:03.584Z,66.65
2023-01-13T13:22:26.491Z,66.44
2023-01-13T13:23:40.081Z,66.33
2023-01-13T13:24:48.415Z,66.23
2023-01-13T13:26:15.229Z,66.76
2023-01-13T13:28:05.875Z,66.23
2023-01-13T13:29:38.856Z,66.17
2023-01-13T13:30:50.242Z,65.44
2023-01-13T13:32:22.938Z,65.48
2023-01-13T13:34:10.053Z,66.18
2023-01-13T13:35:40.163Z,64.80
2023-01-13T13:36:58.215Z,65.10
2023-01-13T13:38:42.136Z,65.04
2023-01-13T13:40:11.224Z,65.06
2023-01-13T13:41:38.164Z,64.93
2023-01-13T13:43:17.492Z,64.89
2023-01-13T13:44:49.182Z,64.58
2023-01-13T13:46:10.684Z,63.90
2023-01-13T13:47:13.215Z,63.99
2023-01-13T13:48:26.862Z,64.48
2023-01-13T13:49:45.189Z,64.36
2023-01-13T13:50:49.533Z,64.00
2023-01-13T13:52:01.087Z,63.10
2023-01-13T13:53:08.212Z,63.06
2023-01-13T13:54:18.591Z,62.90
2023-01-13T13:55:24.741Z,63.06
2023-01-13T13:56:29.611Z,63.21
2023-01-13T13:57:39.649Z,63.42
2023-01-13T13:58:42.815Z,63.57
2023-01-13T13:59:45.370Z,63.98
2023-01-13T14:00:48.920Z,63.50
2023-01-13T14:02:03.896Z,62.89
2023-01-13T14:03:22.755Z,62.70
2023-01-13T14:04:30.282Z,62.48
2023-01-13T14:05:34.511Z,62.18
2023-01-13T14:06:36.846Z,61.93
2023-01-13T14:07:50.118Z,62.25
2023-01-13T14:08:52.254Z,62.76
2023-01-13T14:09:54.936Z,63.11
2023-01-13T14:10:57.475Z,63.10
2023-01-13T14:12:02.532Z,63.27
2023-01-13T14:13:15.587Z,62.54
2023-01-13T14:14:21.053Z,62.69
2023-01-13T14:15:39.199Z,62.79
2023-01-13T14:16:41.504Z,62.81
2023-01-13T14:17:43.699Z,62.79
2023-01-13T14:18:47.997Z,62.86
2023-01-13T14:20:05.403Z,63.08
2023-01-13T14:21:28.030Z,62.93
2023-01-13T14:22:30.753Z,63.31
2023-01-13T14:23:33.937Z,63.06
2023-01-13T14:24:47.550Z,62.75
2023-01-13T14:25:52.237Z,62.70
2023-01-13T14:27:14.519Z,62.36
2023-01-13T14:28:22.933Z,62.41
2023-01-13T14:29:25.457Z,62.87
2023-01-13T14:30:28.569Z,62.75
2023-01-13T14:31:32.031Z,63.02
2023-01-13T14:32:36.772Z,63.07
2023-01-13T14:33:43.671Z,62.85
2023-01-13T14:34:46.106Z,62.78
2023-01-13T14:36:07.788Z,63.11
2023-01-13T14:37:28.300Z,63.11
2023-01-13T14:38:30.730Z,63.04
2023-01-13T14:39:39.804Z,63.18
2023-01-13T14:40:45.725Z,62.98
2023-01-13T14:41:50.790Z,62.91
2023-01-13T14:43:15.940Z,62.87
2023-01-13T14:44:34.980Z,62.90
2023-01-13T14:45:37.843Z,62.76
2023-01-13T14:46:43.200Z,62.65
2023-01-13T14:47:52.588Z,63.02
2023-01-13T14:49:01.126Z,62.75
2023-01-13T14:50:10.310Z,63.43
2023-01-13T14:51:20.763Z,63.60
2023-01-13T14:52:25.812Z,63.67
2023-01-13T14:53:43.347Z,62.80